createdAt,value
2023-04-27T00:02:23.528Z,99812.50
2023-04-27T00:04:51.856Z,99815.44
2023-04-27T00:07:19.444Z,99810.81
2023-04-27T00:09:47.238Z,99816.50
2023-04-27T00:12:14.920Z,99812.94
2023-04-27T00:14:42.369Z,99823.59
2023-04-27T00:17:09.801Z,99819.22
2023-04-27T00:19:37.718Z,99823.81
2023-04-27T00:22:05.177Z,99824.66
2023-04-27T00:24:32.592Z,99820.03
2023-04-27T00:27:00.521Z,99820.28
2023-04-27T00:29:27.937Z,99819.22
2023-04-27T00:31:55.943Z,99819.22
2023-04-27T00:34:23.643Z,99817.56
2023-04-27T00:36:51.261Z,99812.09
2023-04-27T00:39:20.613Z,99806.66
2023-04-27T00:41:48.337Z,99816.50
2023-04-27T00:44:23.540Z,99823.81
2023-04-27T00:46:51.471Z,99821.94
2023-04-27T00:49:22.417Z,99813.75
2023-04-27T00:51:49.818Z,99814.00
2023-04-27T00:54:19.617Z,99820.28
2023-04-27T00:56:50.780Z,99808.75
2023-04-27T00:59:19.061Z,99815.25
2023-04-27T01:01:46.826Z,99816.91
2023-04-27T01:04:14.525Z,99811.72
2023-04-27T01:06:42.422Z,99813.38
2023-04-27T01:09:11.043Z,99804.38
2023-04-27T01:11:38.621Z,99809.81
2023-04-27T01:14:06.800Z,99817.16
2023-04-27T01:16:34.339Z,99810.06
2023-04-27T01:19:02.704Z,99808.16
2023-04-27T01:21:30.995Z,99821.78
2023-04-27T01:23:59.139Z,99826.37
2023-04-27T01:26:26.919Z,99822.84
2023-04-27T01:28:54.682Z,99826.63
2023-04-27T01:31:22.132Z,99821.38
2023-04-27T01:33:49.572Z,99822.22
2023-04-27T01:36:17.303Z,99824.94
2023-04-27T01:38:44.710Z,99833.09
2023-04-27T01:41:13.704Z,99828.72
2023-04-27T01:43:43.748Z,99836.88
2023-04-27T01:46:12.503Z,99834.16
2023-04-27T01:48:42.877Z,99836.03
2023-04-27T01:51:11.418Z,99846.69
2023-04-27T01:53:38.851Z,99844.53
2023-04-27T01:56:06.894Z,99841.87
2023-04-27T01:58:34.370Z,99842.31
2023-04-27T02:01:01.821Z,99847.75
2023-04-27T02:03:29.760Z,99844.22
2023-04-27T02:05:57.300Z,99834.37
2023-04-27T02:08:24.728Z,99838.16
2023-04-27T02:10:52.564Z,99843.38
2023-04-27T02:13:19.981Z,99843.38
2023-04-27T02:15:47.513Z,99841.50
2023-04-27T02:18:16.096Z,99846.09
2023-04-27T02:20:43.500Z,99851.31
2023-04-27T02:23:11.645Z,99853.44
2023-04-27T02:25:42.880Z,99855.31
2023-04-27T02:28:10.476Z,99858.03
2023-04-27T02:30:38.629Z,99859.06
2023-04-27T02:33:06.310Z,99862.66
2023-04-27T02:35:33.782Z,99859.94
2023-04-27T02:38:01.625Z,99865.38
2023-04-27T02:40:29.019Z,99863.69
2023-04-27T02:42:58.040Z,99869.97
2023-04-27T02:45:25.541Z,99877.28
2023-04-27T02:47:53.009Z,99870.19
2023-04-27T02:50:20.818Z,99870.19
2023-04-27T02:52:48.284Z,99875.62
2023-04-27T02:55:16.488Z,99871.25
2023-04-27T02:57:44.371Z,99873.16
2023-04-27T03:00:13.094Z,99873.97
2023-04-27T03:02:40.773Z,99882.13
2023-04-27T03:05:08.888Z,99887.56
2023-04-27T03:07:36.448Z,99885.09
2023-04-27T03:10:04.890Z,99887.56
2023-04-27T03:12:32.576Z,99892.19
2023-04-27T03:15:00.972Z,99884.03
2023-04-27T03:17:28.525Z,99891.34
2023-04-27T03:19:56.412Z,99899.53
2023-04-27T03:22:24.623Z,99896.81
2023-04-27T03:24:52.002Z,99897.00
2023-04-27T03:27:19.837Z,99891.34
2023-04-27T03:29:47.319Z,99900.34
2023-04-27T03:32:15.736Z,99900.56
2023-04-27T03:34:43.490Z,99893.25
2023-04-27T03:37:10.887Z,99900.56
2023-04-27T03:39:38.364Z,99905.16
2023-04-27T03:42:06.174Z,99908.72
2023-04-27T03:44:34.284Z,99906.19
2023-04-27T03:47:02.461Z,99912.47
2023-04-27T03:49:30.612Z,99914.34
2023-04-27T03:51:58.187Z,99914.59
2023-04-27T03:54:25.804Z,99917.06
2023-04-27T03:56:53.498Z,99913.53
2023-04-27T03:59:21.264Z,99916.25
2023-04-27T04:01:49.324Z,99918.97
2023-04-27T04:04:17.131Z,99919.78
2023-04-27T04:06:44.732Z,99922.50
2023-04-27T04:09:12.996Z,99918.78
2023-04-27T04:11:40.980Z,99922.50
2023-04-27T04:14:09.735Z,99929.84
2023-04-27T04:16:37.179Z,99928.19
2023-04-27T04:19:04.976Z,99935.72
2023-04-27T04:21:32.502Z,99934.28
2023-04-27T04:23:59.911Z,99934.28
2023-04-27T04:26:27.809Z,99940.78
2023-04-27T04:28:57.157Z,99940.97
2023-04-27T04:31:24.745Z,99942.28
2023-04-27T04:33:52.774Z,99943.09
2023-04-27T04:36:21.388Z,99939.56
2023-04-27T04:38:51.576Z,99941.63
2023-04-27T04:41:19.362Z,99936.19
2023-04-27T04:43:49.406Z,99946.25
2023-04-27T04:46:17.289Z,99953.59
2023-04-27T04:48:45.010Z,99957.34
2023-04-27T04:51:12.711Z,99952.97
2023-04-27T04:53:40.142Z,99953.19
2023-04-27T04:56:14.194Z,99945.00
2023-04-27T04:58:41.608Z,99951.50
2023-04-27T05:01:09.996Z,99959.91
2023-04-27T05:03:37.706Z,99959.06
2023-04-27T05:06:05.532Z,99956.34
2023-04-27T05:08:33.211Z,99954.66
2023-04-27T05:11:00.718Z,99962.81
2023-04-27T05:13:28.281Z,99964.72
2023-04-27T05:15:55.976Z,99961.16
2023-04-27T05:18:23.469Z,99967.66
2023-04-27T05:20:50.912Z,99971.22
2023-04-27T05:23:18.597Z,99967.66
2023-04-27T05:25:46.145Z,99973.91
2023-04-27T05:28:13.513Z,99972.88
2023-04-27T05:30:42.565Z,99976.41
2023-04-27T05:33:10.136Z,99974.56
2023-04-27T05:35:37.593Z,99972.66
2023-04-27T05:38:05.299Z,99978.94
2023-04-27T05:40:32.723Z,99976.00
2023-04-27T05:43:03.356Z,99982.25
2023-04-27T05:45:31.041Z,99986.66
2023-04-27T05:47:58.576Z,99984.78
2023-04-27T05:50:26.092Z,99987.28
2023-04-27T05:52:53.780Z,99993.56
2023-04-27T05:55:21.708Z,99993.56
2023-04-27T05:57:54.504Z,99996.03
2023-04-27T06:00:32.226Z,99995.22
2023-04-27T06:03:00.004Z,100004.19
2023-04-27T06:05:28.094Z,100001.50
2023-04-27T06:07:55.660Z,99998.75
2023-04-27T06:10:23.330Z,100001.50
2023-04-27T06:12:50.816Z,100002.31
2023-04-27T06:15:18.333Z,100006.94
2023-04-27T06:17:46.127Z,100001.50
2023-04-27T06:20:13.652Z,100010.69
2023-04-27T06:22:41.102Z,100010.69
2023-04-27T06:25:08.855Z,100010.94
2023-04-27T06:27:36.364Z,100014.47
2023-04-27T06:30:05.035Z,100012.00
2023-04-27T06:32:33.246Z,100017.63
2023-04-27T06:35:00.689Z,100012.19
2023-04-27T06:37:28.128Z,100011.59
2023-04-27T06:39:56.254Z,100009.06
2023-04-27T06:42:23.722Z,100003.63
2023-04-27T06:44:54.816Z,100005.72
2023-04-27T06:47:22.874Z,100011.16
2023-04-27T06:49:50.898Z,100015.78
2023-04-27T06:52:18.323Z,100017.88
2023-04-27T06:54:46.117Z,100023.53
2023-04-27T06:57:13.639Z,100019.97
2023-04-27T06:59:41.074Z,100022.69
2023-04-27T07:02:08.749Z,100021.03
2023-04-27T07:04:38.084Z,100025.62
2023-04-27T07:07:05.652Z,100020.19
2023-04-27T07:09:33.559Z,100028.38
2023-04-27T07:12:01.411Z,100017.69
2023-04-27T07:14:28.801Z,100025.84
2023-04-27T07:16:56.526Z,100022.28
2023-04-27T07:19:23.954Z,100021.69
2023-04-27T07:21:51.884Z,100025.22
2023-04-27T07:24:20.467Z,100026.28
2023-04-27T07:26:48.148Z,100033.63
2023-04-27T07:29:26.602Z,100032.78
2023-04-27T07:31:55.910Z,100020.22
2023-04-27T07:34:23.997Z,100027.34
2023-04-27T07:36:54.188Z,100036.53
2023-04-27T07:39:22.446Z,100032.97
2023-04-27T07:41:50.217Z,100025.88
2023-04-27T07:44:18.723Z,100032.97
2023-04-27T07:46:49.635Z,100033.19
2023-04-27T07:49:17.086Z,100028.81
2023-04-27T07:51:44.545Z,100032.56
2023-04-27T07:54:12.344Z,100032.56
2023-04-27T07:56:43.136Z,100029.84
2023-04-27T07:59:10.737Z,100030.91
2023-04-27T08:01:38.589Z,100028.19
2023-04-27T08:04:06.762Z,100033.63
2023-04-27T08:06:35.523Z,100028.19
2023-04-27T08:09:04.359Z,100039.28
2023-04-27T08:11:32.186Z,100032.78
2023-04-27T08:13:59.634Z,100038.44
2023-04-27T08:16:27.123Z,100036.56
2023-04-27T08:18:54.939Z,100042.22
2023-04-27T08:21:22.419Z,100035.09
2023-04-27T08:23:49.950Z,100033.44
2023-04-27T08:26:17.669Z,100047.03
2023-04-27T08:28:45.143Z,100037.19
2023-04-27T08:31:12.945Z,100042.62
2023-04-27T08:33:40.691Z,100041.81
2023-04-27T08:36:08.392Z,100043.69
2023-04-27T08:38:35.987Z,100038.25
2023-04-27T08:41:18.007Z,100035.72
2023-04-27T08:43:51.342Z,100045.78
2023-04-27T08:46:23.245Z,100041.16
2023-04-27T08:48:51.174Z,100040.34
2023-04-27T08:51:19.957Z,100035.97
2023-04-27T08:53:51.840Z,100041.41
2023-04-27T08:56:19.949Z,100039.72
2023-04-27T08:58:47.394Z,100041.41
2023-04-27T09:01:14.894Z,100028.62
2023-04-27T09:03:43.062Z,100014.22
2023-04-27T09:06:10.796Z,100024.03
2023-04-27T09:08:45.044Z,100019.41
2023-04-27T09:11:16.517Z,100008.34
2023-04-27T09:13:45.277Z,100015.44
2023-04-27T09:16:14.374Z,100015.22
2023-04-27T09:18:43.633Z,100020.47
2023-04-27T09:21:12.118Z,100021.91
2023-04-27T09:23:44.552Z,100009.97
2023-04-27T09:26:19.629Z,100010.81
2023-04-27T09:28:48.363Z,100001.62
2023-04-27T09:31:16.365Z,100007.06
2023-04-27T09:33:44.150Z,100002.66
2023-04-27T09:36:11.946Z,100000.56
2023-04-27T09:38:39.383Z,100013.34
2023-04-27T09:41:06.898Z,100007.66
2023-04-27T09:43:34.680Z,100004.13
2023-04-27T09:46:04.060Z,99984.25
2023-04-27T09:48:31.638Z,99998.06
2023-04-27T09:50:59.308Z,100004.94
2023-04-27T09:53:43.841Z,99996.19
2023-04-27T09:56:36.472Z,100002.66
2023-04-27T09:59:28.706Z,99989.91
2023-04-27T10:01:57.557Z,99986.97
2023-04-27T10:04:32.843Z,99990.94
2023-04-27T10:07:01.369Z,99981.97
2023-04-27T10:09:53.738Z,99980.06
2023-04-27T10:12:21.823Z,99978.41
2023-04-27T10:14:49.930Z,99978.41
2023-04-27T10:17:17.734Z,99988.44
2023-04-27T10:20:05.291Z,99978.63
2023-04-27T10:22:43.983Z,99978.41
2023-04-27T10:25:14.515Z,99973.19
2023-04-27T10:27:42.701Z,99978.00
2023-04-27T10:30:11.460Z,99971.53
2023-04-27T10:32:50.913Z,99971.53
2023-04-27T10:35:19.087Z,99975.09
2023-04-27T10:37:47.653Z,99972.97
2023-04-27T10:40:17.388Z,99979.69
2023-04-27T10:42:45.547Z,99978.63
2023-04-27T10:45:15.844Z,99979.22
2023-04-27T10:47:44.254Z,99981.97
2023-04-27T10:50:13.572Z,99985.31
2023-04-27T10:52:44.289Z,99980.72
2023-04-27T10:55:19.690Z,99981.53
2023-04-27T10:57:50.958Z,99976.97
2023-04-27T11:00:28.601Z,99974.25
2023-04-27T11:02:58.071Z,99984.06
2023-04-27T11:05:30.011Z,99989.50
2023-04-27T11:08:07.743Z,99972.78
2023-04-27T11:10:35.959Z,99962.97
2023-04-27T11:13:14.094Z,99976.75
2023-04-27T11:16:01.994Z,99965.06
2023-04-27T11:18:33.712Z,99975.50
2023-04-27T11:21:13.233Z,99967.75
2023-04-27T11:23:41.200Z,99975.72
2023-04-27T11:26:12.829Z,99974.25
2023-04-27T11:28:41.058Z,99968.00
2023-04-27T11:31:08.906Z,99969.87
2023-04-27T11:33:36.779Z,99970.72
2023-04-27T11:36:04.462Z,99973.44
2023-04-27T11:38:35.067Z,99980.53
2023-04-27T11:41:06.413Z,99968.00
2023-04-27T11:43:34.298Z,99969.87
2023-04-27T11:46:06.018Z,99980.53
2023-04-27T11:48:37.068Z,99976.97
2023-04-27T11:51:04.761Z,99980.53
2023-04-27T11:53:33.892Z,99977.81
2023-04-27T11:56:02.642Z,99976.16
2023-04-27T11:58:30.386Z,99975.09
2023-04-27T12:00:58.085Z,99972.38
2023-04-27T12:03:26.210Z,99981.59
2023-04-27T12:05:54.275Z,99978.63
2023-04-27T12:08:21.792Z,99978.63
2023-04-27T12:10:49.625Z,99970.72
2023-04-27T12:13:17.028Z,99972.38
2023-04-27T12:15:44.425Z,99980.53
2023-04-27T12:18:12.204Z,99968.00
2023-04-27T12:20:39.880Z,99966.94
2023-04-27T12:23:07.369Z,99971.53
2023-04-27T12:25:35.032Z,99970.72
2023-04-27T12:28:02.622Z,99961.50
2023-04-27T12:30:30.162Z,99961.50
2023-04-27T12:32:59.624Z,99965.28
2023-04-27T12:35:27.313Z,99962.78
2023-04-27T12:37:55.314Z,99966.09
2023-04-27T12:40:23.321Z,99958.19
2023-04-27T12:42:50.704Z,99962.56
2023-04-27T12:45:18.137Z,99961.72
2023-04-27T12:48:01.240Z,99960.91
2023-04-27T12:50:33.372Z,99957.94
2023-04-27T12:53:01.119Z,99953.56
2023-04-27T12:55:33.176Z,99963.63
2023-04-27T12:58:02.655Z,99961.72
2023-04-27T13:00:30.221Z,99958.19
2023-04-27T13:02:58.647Z,99959.84
2023-04-27T13:05:26.504Z,99963.63
2023-04-27T13:07:53.968Z,99958.19
2023-04-27T13:10:21.374Z,99959.00
2023-04-27T13:12:49.060Z,99964.66
2023-04-27T13:15:16.474Z,99953.78
2023-04-27T13:17:44.252Z,99968.22
2023-04-27T13:20:12.343Z,99966.34
2023-04-27T13:22:40.904Z,99968.22
2023-04-27T13:25:09.682Z,99961.94
2023-04-27T13:27:37.523Z,99966.34
2023-04-27T13:30:05.481Z,99968.22
2023-04-27T13:32:32.998Z,99956.50
2023-04-27T13:35:00.978Z,99967.38
2023-04-27T13:37:28.532Z,99956.50
2023-04-27T20:03:53.463Z,100113.12
2023-04-27T20:06:21.794Z,100116.84
2023-04-27T20:08:49.412Z,100116.66
2023-04-27T20:11:17.168Z,100117.50
2023-04-27T20:13:44.955Z,100116.44
2023-04-27T20:16:13.058Z,100117.09
2023-04-27T20:18:40.599Z,100113.72
2023-04-27T20:21:08.548Z,100107.22
2023-04-27T20:23:35.980Z,100106.19
2023-04-27T20:26:03.389Z,100108.94
2023-04-27T20:28:31.401Z,100117.09
2023-04-27T20:30:58.848Z,100114.38
2023-04-27T20:33:26.364Z,100111.63
2023-04-27T20:36:03.696Z,100110.78
2023-04-27T20:38:34.136Z,100115.37
2023-04-27T20:41:03.276Z,100112.66
2023-04-27T20:43:31.509Z,100118.09
2023-04-27T20:45:59.013Z,100115.84
2023-04-27T20:48:28.542Z,100115.59
2023-04-27T20:50:55.954Z,100119.38
2023-04-27T20:53:23.464Z,100117.50
2023-04-27T20:55:51.116Z,100124.00
2023-04-27T20:58:18.628Z,100126.72
2023-04-27T21:00:46.415Z,100127.53
2023-04-27T21:03:14.297Z,100125.00
2023-04-27T21:05:41.792Z,100119.56
2023-04-27T21:08:09.511Z,100131.31
2023-04-27T21:10:37.329Z,100123.16
2023-04-27T21:13:04.832Z,100132.97
2023-04-27T21:15:33.403Z,100126.91
2023-04-27T21:18:01.157Z,100126.91
2023-04-27T21:20:28.636Z,100131.50
2023-04-27T21:22:56.451Z,100135.87
2023-04-27T21:25:24.161Z,100135.06
2023-04-27T21:27:51.618Z,100134.22
2023-04-27T21:30:19.040Z,100145.09
2023-04-27T21:32:46.808Z,100143.44
2023-04-27T21:35:14.289Z,100147.00
2023-04-27T21:37:41.868Z,100156.81
2023-04-27T21:40:09.849Z,100153.25
2023-04-27T21:42:37.267Z,100150.53
2023-04-27T21:45:04.883Z,100151.59
2023-04-27T21:47:32.663Z,100149.47
2023-04-27T21:50:00.190Z,100146.75
2023-04-27T21:52:27.579Z,100153.25
2023-04-27T21:54:55.338Z,100149.47
2023-04-27T21:57:22.736Z,100154.94
2023-04-27T21:59:50.187Z,100157.62
2023-04-27T22:02:17.916Z,100162.87
2023-04-27T22:04:45.820Z,100166.66
2023-04-27T22:07:13.313Z,100154.94
2023-04-27T22:09:41.515Z,100164.78
2023-04-27T22:12:09.229Z,100154.94
2023-04-27T22:14:36.645Z,100160.59
2023-04-27T22:17:04.036Z,100157.88
2023-04-27T22:19:31.729Z,100164.34
2023-04-27T22:21:59.128Z,100156.41
2023-04-27T22:24:26.553Z,100163.53
2023-04-27T22:26:54.258Z,100172.72
2023-04-27T22:29:21.690Z,100167.28
2023-04-27T22:31:49.147Z,100167.47
2023-04-27T22:34:17.153Z,100162.87
2023-04-27T22:36:44.721Z,100173.56
2023-04-27T22:39:12.165Z,100178.38
2023-04-27T22:41:39.869Z,100169.37
2023-04-27T22:44:07.348Z,100176.69
2023-04-27T22:46:34.887Z,100178.59
2023-04-27T22:49:02.637Z,100180.47
2023-04-27T22:51:30.132Z,100184.03
2023-04-27T22:53:57.515Z,100184.03
2023-04-27T22:56:25.168Z,100184.03
2023-04-27T22:58:52.555Z,100185.91
2023-04-27T23:01:19.955Z,100187.78
2023-04-27T23:03:47.831Z,100180.47
2023-04-27T23:06:15.340Z,100178.81
2023-04-27T23:08:45.399Z,100188.63
2023-04-27T23:11:13.896Z,100190.28
2023-04-27T23:13:41.422Z,100182.97
2023-04-27T23:16:09.916Z,100183.19
2023-04-27T23:18:37.916Z,100180.47
2023-04-27T23:21:05.354Z,100185.06
2023-04-27T23:23:32.743Z,100180.47
2023-04-27T23:26:00.851Z,100177.75
2023-04-27T23:28:28.264Z,100176.09
2023-04-27T23:30:55.686Z,100176.91
2023-04-27T23:33:24.387Z,100179.63
2023-04-27T23:35:51.908Z,100183.19
2023-04-27T23:38:19.329Z,100185.25
2023-04-27T23:40:47.020Z,100183.37
2023-04-27T23:43:14.542Z,100181.72
2023-04-27T23:45:41.959Z,100174.38
2023-04-27T23:48:09.687Z,100173.56
2023-04-27T23:50:37.109Z,100179.81
2023-04-27T23:53:04.509Z,100174.59
2023-04-27T23:55:34.782Z,100183.59
2023-04-27T23:58:02.422Z,100177.31
